Time;durP1;ratioP1;P1;durP2;ratioP2;P2;SDS_P1;SDS_P2;PMS_P1;PMS_P2;Temp;Humidity;BMP_temperature;BMP_pressure;BME280_temperature;BME280_humidity;BME280_pressure;Samples;Min_cycle;Max_cycle;Signal;HPM_P1;HPM_P2
2023/04/05 00:01:06;;;;;;;;;;;18.20;39.60;;;;;;5013143;28;20293;-73
2023/04/05 00:03:32;;;;;;;;;;;18.10;39.60;;;;;;5008034;28;20290;-73
2023/04/05 00:05:57;;;;;;;;;;;18.10;39.70;;;;;;5022551;28;19973;-73
2023/04/05 00:08:25;;;;;;;;;;;18.10;39.60;;;;;;5022059;28;20283;-73
2023/04/05 00:10:51;;;;;;;;;;;18.10;39.60;;;;;;5011729;28;19914;-74
2023/04/05 00:13:16;;;;;;;;;;;18.10;39.70;;;;;;5005519;28;21973;-73
2023/04/05 00:15:41;;;;;;;;;;;18.10;39.70;;;;;;5019667;28;19913;-73
2023/04/05 00:18:07;;;;;;;;;;;18.10;39.70;;;;;;4999237;28;19929;-73
2023/04/05 00:20:32;;;;;;;;;;;18.10;39.90;;;;;;5008526;28;20332;-73
2023/04/05 00:22:58;;;;;;;;;;;18.00;39.80;;;;;;5010974;28;19917;-73
2023/04/05 00:25:23;;;;;;;;;;;18.00;39.70;;;;;;5001742;28;20125;-73
2023/04/05 00:27:49;;;;;;;;;;;18.00;39.80;;;;;;4999215;28;19914;-73
2023/04/05 00:30:19;;;;;;;;;;;18.00;39.90;;;;;;5013664;28;19913;-73
2023/04/05 00:32:48;;;;;;;;;;;17.90;39.80;;;;;;5003197;28;19936;-73
2023/04/05 00:35:14;;;;;;;;;;;17.90;39.80;;;;;;5009460;28;20485;-73
2023/04/05 00:37:40;;;;;;;;;;;17.90;39.80;;;;;;5016494;28;20012;-73
2023/04/05 00:40:06;;;;;;;;;;;17.90;39.80;;;;;;5012264;28;19971;-74
2023/04/05 00:42:31;;;;;;;;;;;17.90;39.90;;;;;;5004705;28;19914;-73
2023/04/05 00:44:56;;;;;;;;;;;17.90;39.90;;;;;;5008215;28;19913;-73
2023/04/05 00:47:22;;;;;;;;;;;17.80;39.90;;;;;;5027038;28;19917;-73
2023/04/05 00:49:47;;;;;;;;;;;17.80;40.40;;;;;;5013366;28;19917;-74
2023/04/05 00:52:14;;;;;;;;;;;17.80;39.80;;;;;;5013616;28;19972;-74
2023/04/05 00:54:40;;;;;;;;;;;17.80;39.90;;;;;;5016136;28;19917;-73
2023/04/05 00:57:06;;;;;;;;;;;17.80;39.70;;;;;;5007852;28;19913;-74
2023/04/05 00:59:31;;;;;;;;;;;17.70;39.80;;;;;;5014092;28;19923;-73
2023/04/05 01:02:02;;;;;;;;;;;17.70;39.70;;;;;;5006071;28;19913;-73
2023/04/05 01:04:29;;;;;;;;;;;17.70;39.80;;;;;;5009470;28;19953;-73
2023/04/05 01:07:07;;;;;;;;;;;17.70;39.90;;;;;;5010772;28;19960;-73
2023/04/05 01:09:46;;;;;;;;;;;17.70;39.80;;;;;;5016189;28;20394;-74
2023/04/05 01:12:14;;;;;;;;;;;17.70;39.70;;;;;;5014913;28;22424;-73
2023/04/05 01:14:49;;;;;;;;;;;17.70;39.70;;;;;;5010521;28;19994;-73
2023/04/05 01:17:20;;;;;;;;;;;17.80;40.50;;;;;;5021715;28;19961;-73
2023/04/05 01:19:46;;;;;;;;;;;17.90;41.00;;;;;;5003117;28;19945;-74
2023/04/05 01:22:25;;;;;;;;;;;18.10;40.80;;;;;;5010243;28;19928;-74
2023/04/05 01:25:09;;;;;;;;;;;18.40;40.00;;;;;;5014173;28;19917;-73
2023/04/05 01:27:54;;;;;;;;;;;18.60;39.90;;;;;;4999766;28;19918;-73
2023/04/05 01:30:19;;;;;;;;;;;19.00;39.00;;;;;;5020858;28;19917;-74
2023/04/05 01:32:47;;;;;;;;;;;19.30;38.70;;;;;;5010573;28;19937;-74
2023/04/05 01:35:16;;;;;;;;;;;19.50;38.10;;;;;;5008355;28;19917;-74
2023/04/05 01:37:42;;;;;;;;;;;19.70;37.90;;;;;;5001955;28;19921;-74
2023/04/05 01:40:08;;;;;;;;;;;19.80;37.60;;;;;;5009826;28;19940;-73
2023/04/05 01:42:33;;;;;;;;;;;19.90;37.70;;;;;;5015974;28;19948;-74
2023/04/05 01:44:58;;;;;;;;;;;19.80;37.70;;;;;;5008947;28;21874;-73
2023/04/05 01:47:24;;;;;;;;;;;19.70;37.90;;;;;;5006147;28;19917;-74
2023/04/05 01:49:49;;;;;;;;;;;19.60;38.00;;;;;;5015168;28;20390;-74
2023/04/05 01:52:15;;;;;;;;;;;19.60;38.30;;;;;;5024100;28;19962;-74
2023/04/05 01:54:40;;;;;;;;;;;19.40;38.40;;;;;;5010679;28;19924;-73
2023/04/05 01:57:06;;;;;;;;;;;19.30;38.60;;;;;;4998635;28;19966;-73
2023/04/05 01:59:31;;;;;;;;;;;19.20;38.70;;;;;;5047054;27;19913;-73
2023/04/05 02:01:57;;;;;;;;;;;19.10;38.20;;;;;;5019045;28;20413;-73
2023/04/05 02:04:22;;;;;;;;;;;19.00;38.10;;;;;;5016544;28;19922;-74
2023/04/05 02:06:47;;;;;;;;;;;19.10;38.10;;;;;;5009338;28;19917;-73
2023/04/05 02:09:13;;;;;;;;;;;19.00;37.80;;;;;;5019414;28;19917;-73
2023/04/05 02:11:38;;;;;;;;;;;19.00;37.80;;;;;;5008309;28;19925;-74
2023/04/05 02:14:04;;;;;;;;;;;19.00;38.00;;;;;;5003246;28;19920;-74
2023/04/05 02:16:32;;;;;;;;;;;19.00;37.90;;;;;;5004859;28;19952;-74
2023/04/05 02:18:58;;;;;;;;;;;19.00;37.90;;;;;;5009866;28;19960;-74
2023/04/05 02:21:24;;;;;;;;;;;19.00;37.80;;;;;;5003355;28;19917;-74
2023/04/05 02:23:50;;;;;;;;;;;19.10;37.90;;;;;;5020708;28;20302;-73
2023/04/05 02:26:16;;;;;;;;;;;19.00;37.80;;;;;;5012258;28;19921;-74
2023/04/05 02:28:41;;;;;;;;;;;19.00;37.90;;;;;;5023481;28;20380;-74
2023/04/05 02:31:10;;;;;;;;;;;19.00;38.00;;;;;;5021492;28;20427;-74
2023/04/05 02:33:36;;;;;;;;;;;19.00;38.00;;;;;;5009305;28;19956;-73
2023/04/05 02:36:03;;;;;;;;;;;19.00;38.10;;;;;;5025141;28;20409;-73
2023/04/05 02:38:28;;;;;;;;;;;18.90;38.10;;;;;;5024150;28;19921;-73
2023/04/05 02:40:54;;;;;;;;;;;18.90;38.30;;;;;;5009764;28;20340;-73
2023/04/05 02:43:19;;;;;;;;;;;18.90;38.30;;;;;;5015812;28;19946;-73
2023/04/05 02:45:45;;;;;;;;;;;18.80;38.10;;;;;;5011437;28;19921;-73
2023/04/05 02:48:10;;;;;;;;;;;18.70;38.30;;;;;;5010561;28;19910;-74
2023/04/05 02:50:36;;;;;;;;;;;18.70;38.10;;;;;;5020153;28;19925;-73
2023/04/05 02:53:01;;;;;;;;;;;18.70;38.10;;;;;;5024557;28;19917;-73
2023/04/05 02:55:29;;;;;;;;;;;18.70;38.20;;;;;;5008084;28;19920;-73
2023/04/05 02:58:01;;;;;;;;;;;18.70;38.20;;;;;;5011267;28;19913;-73
2023/04/05 03:00:27;;;;;;;;;;;18.70;38.20;;;;;;5009477;28;19910;-74
2023/04/05 03:02:52;;;;;;;;;;;18.60;38.40;;;;;;5007623;28;19923;-73
2023/04/05 03:05:19;;;;;;;;;;;18.60;38.30;;;;;;5006396;28;19917;-74
2023/04/05 03:07:45;;;;;;;;;;;18.70;38.40;;;;;;5006295;28;20335;-73
2023/04/05 03:10:12;;;;;;;;;;;18.70;38.30;;;;;;5006056;28;19962;-74
2023/04/05 03:12:38;;;;;;;;;;;18.70;38.30;;;;;;5014989;28;19929;-74
2023/04/05 03:15:04;;;;;;;;;;;18.70;38.40;;;;;;5015097;28;19918;-74
2023/04/05 03:17:29;;;;;;;;;;;18.60;38.60;;;;;;5007747;28;19913;-74
2023/04/05 03:19:55;;;;;;;;;;;18.60;38.50;;;;;;5017718;28;19917;-73
2023/04/05 03:22:20;;;;;;;;;;;18.70;38.20;;;;;;5029586;28;19914;-74
2023/04/05 03:24:46;;;;;;;;;;;18.70;38.20;;;;;;5008160;28;19914;-74
2023/04/05 03:27:13;;;;;;;;;;;18.80;38.10;;;;;;5019921;28;20367;-74
2023/04/05 03:29:40;;;;;;;;;;;18.80;38.00;;;;;;4991619;28;19975;-74
2023/04/05 03:32:10;;;;;;;;;;;18.80;38.00;;;;;;5008926;28;19928;-74
2023/04/05 03:34:37;;;;;;;;;;;18.80;37.90;;;;;;5010562;28;19932;-74
2023/04/05 03:37:03;;;;;;;;;;;18.80;38.10;;;;;;5007482;28;19913;-74
2023/04/05 03:39:28;;;;;;;;;;;18.80;38.10;;;;;;5010976;28;20247;-74
2023/04/05 03:41:55;;;;;;;;;;;18.80;38.20;;;;;;5021035;28;19917;-74
2023/04/05 03:44:20;;;;;;;;;;;18.70;38.30;;;;;;5002984;28;19913;-74
2023/04/05 03:46:46;;;;;;;;;;;18.70;38.20;;;;;;5007395;28;19925;-74
2023/04/05 03:49:11;;;;;;;;;;;18.70;38.40;;;;;;5007628;28;20294;-74
2023/04/05 03:51:37;;;;;;;;;;;18.80;38.20;;;;;;5017646;28;19959;-74
2023/04/05 03:54:02;;;;;;;;;;;18.80;38.10;;;;;;5007817;28;20432;-74
2023/04/05 03:56:28;;;;;;;;;;;18.80;38.00;;;;;;5004111;28;19932;-74
2023/04/05 03:58:53;;;;;;;;;;;18.80;38.10;;;;;;5008221;28;19917;-74
2023/04/05 04:01:19;;;;;;;;;;;18.80;38.00;;;;;;5005632;28;19917;-73
2023/04/05 04:03:44;;;;;;;;;;;18.80;38.00;;;;;;5006216;28;19913;-74
2023/04/05 04:06:10;;;;;;;;;;;18.80;38.00;;;;;;5010127;28;20382;-74
2023/04/05 04:08:35;;;;;;;;;;;18.80;38.00;;;;;;5010052;28;20494;-73
2023/04/05 04:11:01;;;;;;;;;;;18.70;37.80;;;;;;5017614;28;19936;-74
2023/04/05 04:13:26;;;;;;;;;;;18.70;37.80;;;;;;5008825;28;19913;-74
2023/04/05 04:15:52;;;;;;;;;;;18.70;37.90;;;;;;5011398;28;19913;-74
2023/04/05 04:18:17;;;;;;;;;;;18.70;37.80;;;;;;5011626;28;20489;-74
2023/04/05 04:20:43;;;;;;;;;;;18.70;37.80;;;;;;5011648;28;19925;-74
2023/04/05 04:23:09;;;;;;;;;;;18.60;37.90;;;;;;5012295;28;19924;-73
2023/04/05 04:25:34;;;;;;;;;;;18.60;38.00;;;;;;5028044;27;20389;-73
2023/04/05 04:28:00;;;;;;;;;;;18.50;38.00;;;;;;5078863;27;19912;-73
2023/04/05 04:30:25;;;;;;;;;;;18.40;38.40;;;;;;5011277;28;19961;-74
2023/04/05 04:32:54;;;;;;;;;;;18.40;38.20;;;;;;5021053;27;19945;-74
2023/04/05 04:35:23;;;;;;;;;;;18.40;38.30;;;;;;4996487;28;19970;-73
2023/04/05 04:37:58;;;;;;;;;;;18.50;38.00;;;;;;5008527;28;19943;-73
2023/04/05 04:40:37;;;;;;;;;;;18.50;37.90;;;;;;5011689;28;20405;-73
2023/04/05 04:43:08;;;;;;;;;;;18.60;37.90;;;;;;5020870;28;20008;-74
2023/04/05 04:45:36;;;;;;;;;;;18.60;37.90;;;;;;5021522;28;20012;-74
2023/04/05 04:48:03;;;;;;;;;;;18.70;37.90;;;;;;5013207;28;20347;-74
2023/04/05 04:50:29;;;;;;;;;;;18.70;37.80;;;;;;5015761;28;19913;-74
2023/04/05 04:52:54;;;;;;;;;;;18.70;37.90;;;;;;5014911;28;19924;-74
2023/04/05 04:55:24;;;;;;;;;;;18.70;38.30;;;;;;5020998;28;19913;-74
2023/04/05 04:57:50;;;;;;;;;;;18.60;38.10;;;;;;5000806;28;19921;-74
2023/04/05 05:00:15;;;;;;;;;;;18.60;37.90;;;;;;5013114;28;19971;-73
2023/04/05 05:02:41;;;;;;;;;;;18.60;38.00;;;;;;5016774;27;19913;-74
2023/04/05 05:05:07;;;;;;;;;;;18.70;37.90;;;;;;5010598;28;19959;-74
2023/04/05 05:07:32;;;;;;;;;;;18.70;37.90;;;;;;5027092;28;20298;-73
2023/04/05 05:09:58;;;;;;;;;;;18.60;37.90;;;;;;5011029;28;19924;-74
2023/04/05 05:12:25;;;;;;;;;;;18.60;37.90;;;;;;5016179;28;20348;-73
2023/04/05 05:14:51;;;;;;;;;;;18.60;37.80;;;;;;5021460;28;19965;-73
2023/04/05 05:17:16;;;;;;;;;;;18.60;37.80;;;;;;5009734;28;19913;-73
2023/04/05 05:19:42;;;;;;;;;;;18.60;37.90;;;;;;5011721;28;20465;-73
2023/04/05 05:22:07;;;;;;;;;;;18.70;37.90;;;;;;5013259;28;20333;-74
2023/04/05 05:24:32;;;;;;;;;;;18.60;37.70;;;;;;5002401;28;20318;-74
2023/04/05 05:26:58;;;;;;;;;;;18.70;37.70;;;;;;4996278;28;20283;-73
2023/04/05 05:29:23;;;;;;;;;;;18.70;37.70;;;;;;4999423;28;19975;-74
2023/04/05 05:31:49;;;;;;;;;;;18.70;38.30;;;;;;5012052;28;19948;-73
2023/04/05 05:34:16;;;;;;;;;;;18.70;37.70;;;;;;5008550;28;19917;-73
2023/04/05 05:36:41;;;;;;;;;;;18.70;37.70;;;;;;5008241;28;19914;-74
2023/04/05 05:39:07;;;;;;;;;;;18.70;37.80;;;;;;5007675;28;19913;-74
2023/04/05 05:41:33;;;;;;;;;;;18.70;37.60;;;;;;4999720;28;19917;-73
2023/04/05 05:43:58;;;;;;;;;;;18.70;37.90;;;;;;4996625;28;19928;-73
2023/04/05 05:46:24;;;;;;;;;;;18.60;37.90;;;;;;4996623;28;20012;-73
2023/04/05 05:48:50;;;;;;;;;;;18.60;37.80;;;;;;5002900;28;19960;-73
2023/04/05 05:51:16;;;;;;;;;;;18.60;38.50;;;;;;5010987;28;19945;-73
2023/04/05 05:53:42;;;;;;;;;;;18.60;37.80;;;;;;5023203;28;19913;-74
2023/04/05 05:56:08;;;;;;;;;;;18.60;37.80;;;;;;4993695;28;20347;-73
2023/04/05 05:58:33;;;;;;;;;;;18.50;38.30;;;;;;5004407;28;19918;-74
2023/04/05 06:01:00;;;;;;;;;;;18.50;38.10;;;;;;5011459;28;20297;-74
2023/04/05 06:03:25;;;;;;;;;;;18.50;38.00;;;;;;5016989;28;20015;-74
2023/04/05 06:05:54;;;;;;;;;;;18.50;38.00;;;;;;5011660;28;20021;-73
2023/04/05 06:08:19;;;;;;;;;;;18.40;38.10;;;;;;5014754;28;19947;-74
2023/04/05 06:10:45;;;;;;;;;;;18.40;38.20;;;;;;5026883;28;19913;-74
2023/04/05 06:13:10;;;;;;;;;;;18.40;38.10;;;;;;4996996;28;19967;-74
2023/04/05 06:15:36;;;;;;;;;;;18.30;38.00;;;;;;5015204;28;19913;-74
2023/04/05 06:18:03;;;;;;;;;;;18.40;38.00;;;;;;5009919;28;21286;-74
2023/04/05 06:20:29;;;;;;;;;;;18.40;38.00;;;;;;5011728;28;20001;-74
2023/04/05 06:22:54;;;;;;;;;;;18.30;38.00;;;;;;5018610;28;19920;-74
2023/04/05 06:25:20;;;;;;;;;;;18.30;37.90;;;;;;5015536;28;19923;-74
2023/04/05 06:27:45;;;;;;;;;;;18.40;38.10;;;;;;5030090;28;20008;-74
2023/04/05 06:30:11;;;;;;;;;;;18.40;38.00;;;;;;5035455;28;19909;-74
2023/04/05 06:32:36;;;;;;;;;;;18.40;38.00;;;;;;5010894;28;19918;-74
2023/04/05 06:35:02;;;;;;;;;;;18.40;38.00;;;;;;5026279;28;19916;-74
2023/04/05 06:37:28;;;;;;;;;;;18.50;38.10;;;;;;4994239;28;19916;-74
2023/04/05 06:39:54;;;;;;;;;;;18.50;38.10;;;;;;5024699;27;19974;-74
2023/04/05 06:42:19;;;;;;;;;;;18.50;38.30;;;;;;5008039;28;19979;-75
2023/04/05 06:44:45;;;;;;;;;;;18.40;38.30;;;;;;5008739;28;19909;-74
2023/04/05 06:47:10;;;;;;;;;;;18.40;38.30;;;;;;5001100;28;19957;-74
2023/04/05 06:49:36;;;;;;;;;;;18.40;38.40;;;;;;5015240;28;19924;-74
2023/04/05 06:52:04;;;;;;;;;;;18.50;38.40;;;;;;5009926;28;20383;-74
2023/04/05 06:54:31;;;;;;;;;;;18.50;38.50;;;;;;5012453;28;19909;-75
2023/04/05 06:56:57;;;;;;;;;;;18.50;38.30;;;;;;5020895;28;19918;-74
2023/04/05 06:59:22;;;;;;;;;;;18.60;38.40;;;;;;5012552;28;19921;-74
2023/04/05 07:01:48;;;;;;;;;;;19.20;38.10;;;;;;5013980;27;19921;-74
2023/04/05 07:04:13;;;;;;;;;;;20.00;36.70;;;;;;5006345;28;19922;-74
2023/04/05 07:06:38;;;;;;;;;;;20.70;35.50;;;;;;5027874;28;19917;-74
2023/04/05 07:09:04;;;;;;;;;;;21.10;35.00;;;;;;5005881;28;19936;-74
2023/04/05 07:11:31;;;;;;;;;;;21.30;34.60;;;;;;5010036;28;19921;-74
2023/04/05 07:14:00;;;;;;;;;;;21.40;34.60;;;;;;5009383;28;19923;-74
2023/04/05 07:16:25;;;;;;;;;;;21.70;34.70;;;;;;5005813;28;19913;-75
2023/04/05 07:18:51;;;;;;;;;;;22.20;34.10;;;;;;5012255;28;19924;-75
2023/04/05 07:21:16;;;;;;;;;;;22.60;33.50;;;;;;5009014;28;20000;-75
2023/04/05 07:23:42;;;;;;;;;;;22.80;33.10;;;;;;5015508;28;19949;-75
2023/04/05 07:26:07;;;;;;;;;;;22.90;33.30;;;;;;5005627;28;20387;-74
2023/04/05 07:28:34;;;;;;;;;;;22.80;33.40;;;;;;5015433;28;19968;-75
2023/04/05 07:31:00;;;;;;;;;;;22.80;33.80;;;;;;5020526;28;19945;-74
2023/04/05 07:33:26;;;;;;;;;;;22.80;33.60;;;;;;5013011;28;19982;-74
2023/04/05 07:35:52;;;;;;;;;;;23.00;33.60;;;;;;5014246;28;20282;-74
2023/04/05 07:38:17;;;;;;;;;;;23.10;33.40;;;;;;5015421;28;19924;-74
2023/04/05 07:40:43;;;;;;;;;;;23.30;33.10;;;;;;5003418;28;19925;-74
2023/04/05 07:43:08;;;;;;;;;;;23.40;33.00;;;;;;5013770;28;19925;-73
2023/04/05 07:45:34;;;;;;;;;;;23.40;33.00;;;;;;5002481;28;19923;-74
2023/04/05 07:47:59;;;;;;;;;;;23.40;33.00;;;;;;5019623;28;20362;-74
2023/04/05 07:50:25;;;;;;;;;;;23.40;33.10;;;;;;4996135;28;20367;-74
2023/04/05 07:52:51;;;;;;;;;;;23.40;33.00;;;;;;5015136;28;20031;-74
2023/04/05 07:55:16;;;;;;;;;;;23.40;33.20;;;;;;5009357;28;19920;-75
2023/04/05 07:57:42;;;;;;;;;;;23.20;33.50;;;;;;5012287;28;19983;-74
2023/04/05 08:00:11;;;;;;;;;;;22.90;33.80;;;;;;5013458;28;19929;-74
2023/04/05 08:02:36;;;;;;;;;;;22.80;34.20;;;;;;4992509;28;19921;-74
2023/04/05 08:05:02;;;;;;;;;;;22.70;34.40;;;;;;5002060;28;19914;-74
2023/04/05 08:07:28;;;;;;;;;;;22.70;34.30;;;;;;5018562;28;19914;-74
2023/04/05 08:09:56;;;;;;;;;;;22.80;34.20;;;;;;5008775;28;19963;-74
2023/04/05 08:12:22;;;;;;;;;;;23.00;34.20;;;;;;5002052;28;20351;-74
2023/04/05 08:14:47;;;;;;;;;;;23.00;34.20;;;;;;5018824;28;20020;-75
2023/04/05 08:17:13;;;;;;;;;;;23.00;33.90;;;;;;5005727;28;19921;-75
2023/04/05 08:19:39;;;;;;;;;;;23.10;33.90;;;;;;5008618;28;19936;-75
2023/04/05 08:22:04;;;;;;;;;;;23.20;33.70;;;;;;5013453;28;19917;-74
2023/04/05 08:24:30;;;;;;;;;;;23.30;33.60;;;;;;5019996;28;19954;-74
2023/04/05 08:26:55;;;;;;;;;;;23.40;33.50;;;;;;5018436;28;20693;-74
2023/04/05 08:29:21;;;;;;;;;;;23.40;33.50;;;;;;5017286;28;20298;-74
2023/04/05 08:31:46;;;;;;;;;;;23.30;33.30;;;;;;5011660;28;20374;-75
2023/04/05 08:34:11;;;;;;;;;;;23.40;33.50;;;;;;5014276;28;19921;-75
2023/04/05 08:36:37;;;;;;;;;;;23.40;33.60;;;;;;5022517;28;21253;-75
2023/04/05 08:39:02;;;;;;;;;;;23.40;33.50;;;;;;5015956;28;20305;-75
2023/04/05 08:41:34;;;;;;;;;;;23.40;33.70;;;;;;4996849;28;19940;-75
2023/04/05 08:44:01;;;;;;;;;;;23.30;33.70;;;;;;5012989;28;19918;-75
2023/04/05 08:46:29;;;;;;;;;;;23.30;33.80;;;;;;5004354;28;19936;-74
2023/04/05 08:48:55;;;;;;;;;;;23.20;34.00;;;;;;5015583;28;19917;-74
2023/04/05 08:51:21;;;;;;;;;;;23.20;33.90;;;;;;5012892;28;19940;-74
2023/04/05 08:53:47;;;;;;;;;;;23.20;34.00;;;;;;5007602;28;19917;-74
2023/04/05 08:56:14;;;;;;;;;;;23.20;34.00;;;;;;5013090;28;19914;-75
2023/04/05 08:58:39;;;;;;;;;;;23.20;34.10;;;;;;4998544;28;19966;-74
2023/04/05 09:01:05;;;;;;;;;;;23.20;34.10;;;;;;5000644;28;19918;-74
2023/04/05 09:03:34;;;;;;;;;;;23.20;34.10;;;;;;4995617;28;19913;-75
2023/04/05 09:05:59;;;;;;;;;;;23.20;34.10;;;;;;5000599;28;20028;-74
2023/04/05 09:08:25;;;;;;;;;;;23.20;34.10;;;;;;5007984;28;20426;-74
2023/04/05 09:10:50;;;;;;;;;;;23.20;34.10;;;;;;5006177;28;19917;-74
2023/04/05 09:13:16;;;;;;;;;;;23.20;34.10;;;;;;5011498;27;19932;-74
2023/04/05 09:15:41;;;;;;;;;;;23.20;34.10;;;;;;4999903;28;20290;-74
2023/04/05 09:18:07;;;;;;;;;;;23.20;34.20;;;;;;5004300;28;19963;-75
2023/04/05 09:20:32;;;;;;;;;;;23.20;34.20;;;;;;5005619;28;20293;-75
2023/04/05 09:22:58;;;;;;;;;;;23.20;34.30;;;;;;5014832;28;19917;-75
2023/04/05 09:25:34;;;;;;;;;;;23.20;34.40;;;;;;5015392;28;19957;-75
2023/04/05 09:28:01;;;;;;;;;;;23.20;34.30;;;;;;5095894;28;19921;-74
2023/04/05 09:30:27;;;;;;;;;;;23.30;34.20;;;;;;5015075;28;20000;-75
2023/04/05 09:32:53;;;;;;;;;;;23.20;34.20;;;;;;5020359;28;20007;-74
2023/04/05 09:35:27;;;;;;;;;;;23.30;34.30;;;;;;5014951;28;20346;-74
2023/04/05 09:38:02;;;;;;;;;;;23.30;34.10;;;;;;5020631;28;20263;-75
2023/04/05 09:40:44;;;;;;;;;;;23.20;34.20;;;;;;5003582;28;19913;-74
2023/04/05 09:43:15;;;;;;;;;;;23.40;34.20;;;;;;5016020;28;19913;-75
2023/04/05 09:45:41;;;;;;;;;;;23.30;34.10;;;;;;5026122;28;19956;-74
2023/04/05 09:48:06;;;;;;;;;;;23.30;34.30;;;;;;5003333;28;20008;-74
2023/04/05 09:50:32;;;;;;;;;;;23.30;34.30;;;;;;5008128;28;20020;-74
2023/04/05 09:53:14;;;;;;;;;;;23.30;34.20;;;;;;5021559;28;19921;-74
2023/04/05 09:55:40;;;;;;;;;;;23.40;34.70;;;;;;5016716;27;19910;-75
2023/04/05 09:58:10;;;;;;;;;;;23.40;34.40;;;;;;5010407;28;19914;-74
2023/04/05 10:00:36;;;;;;;;;;;23.40;34.40;;;;;;5017799;28;20106;-74
2023/04/05 10:03:01;;;;;;;;;;;23.40;34.50;;;;;;4997965;28;20359;-74
2023/04/05 10:05:27;;;;;;;;;;;23.40;34.40;;;;;;5014698;28;19914;-74
2023/04/05 10:07:53;;;;;;;;;;;23.40;34.50;;;;;;5023568;28;20016;-74
2023/04/05 10:10:19;;;;;;;;;;;23.40;34.60;;;;;;5011202;28;20395;-74
2023/04/05 10:12:45;;;;;;;;;;;23.40;34.50;;;;;;5002621;28;19929;-74
2023/04/05 10:15:13;;;;;;;;;;;23.40;34.60;;;;;;5002966;28;19914;-74
2023/04/05 10:17:48;;;;;;;;;;;23.40;34.70;;;;;;4998731;28;20533;-74
2023/04/05 10:20:13;;;;;;;;;;;23.40;34.80;;;;;;5004509;28;19994;-74
2023/04/05 10:22:50;;;;;;;;;;;23.30;34.80;;;;;;5019019;28;19917;-74
2023/04/05 10:25:35;;;;;;;;;;;23.30;34.70;;;;;;4993005;28;19929;-74
2023/04/05 10:28:04;;;;;;;;;;;23.30;34.80;;;;;;5015666;28;20291;-74
2023/04/05 10:30:33;;;;;;;;;;;23.30;34.80;;;;;;5011333;28;19920;-74
2023/04/05 10:33:17;;;;;;;;;;;23.30;34.80;;;;;;4998528;28;20832;-74
2023/04/05 10:36:09;;;;;;;;;;;23.40;34.80;;;;;;5019980;28;19931;-74
2023/04/05 10:38:35;;;;;;;;;;;23.40;34.80;;;;;;5011961;28;20252;-74
2023/04/05 10:41:11;;;;;;;;;;;23.50;34.70;;;;;;5032366;27;19921;-74
2023/04/05 10:43:37;;;;;;;;;;;23.40;34.70;;;;;;5031729;27;19921;-74
2023/04/05 10:46:02;;;;;;;;;;;23.40;34.80;;;;;;5005948;28;19921;-75
2023/04/05 10:48:48;;;;;;;;;;;23.40;34.60;;;;;;5004736;28;20282;-74
2023/04/05 10:51:14;;;;;;;;;;;23.50;34.60;;;;;;4998171;28;19917;-74
2023/04/05 10:53:39;;;;;;;;;;;23.50;34.50;;;;;;5039994;28;19932;-74
2023/04/05 10:56:05;;;;;;;;;;;23.50;34.40;;;;;;5021457;28;20302;-74
2023/04/05 10:58:31;;;;;;;;;;;23.60;34.30;;;;;;5018729;28;19924;-74
2023/04/05 11:00:56;;;;;;;;;;;23.60;34.30;;;;;;5027586;28;20001;-74
2023/04/05 11:03:41;;;;;;;;;;;23.50;34.10;;;;;;5025238;27;20340;-74
2023/04/05 11:06:19;;;;;;;;;;;23.40;34.10;;;;;;5018816;28;19974;-74
2023/04/05 11:08:45;;;;;;;;;;;23.30;34.10;;;;;;5015399;28;19962;-73
2023/04/05 11:11:11;;;;;;;;;;;23.30;34.30;;;;;;5007944;28;19953;-74
2023/04/05 11:14:06;;;;;;;;;;;23.40;34.20;;;;;;5023180;28;19918;-75
2023/04/05 11:16:38;;;;;;;;;;;23.40;33.90;;;;;;5005948;28;20019;-74
2023/04/05 11:19:03;;;;;;;;;;;23.50;33.60;;;;;;5017825;28;19925;-74
2023/04/05 11:21:30;;;;;;;;;;;23.60;33.50;;;;;;5020123;28;19973;-74
2023/04/05 11:23:59;;;;;;;;;;;23.60;33.40;;;;;;5021362;28;19921;-75
2023/04/05 11:26:30;;;;;;;;;;;23.70;33.20;;;;;;5004492;28;19913;-75
2023/04/05 11:28:56;;;;;;;;;;;23.80;33.00;;;;;;5022605;28;19924;-75
2023/04/05 11:31:25;;;;;;;;;;;23.70;32.90;;;;;;5020817;28;20481;-74
2023/04/05 11:33:58;;;;;;;;;;;23.70;33.70;;;;;;5012322;28;19917;-74
2023/04/05 11:36:43;;;;;;;;;;;23.60;33.10;;;;;;5011679;28;19969;-74
2023/04/05 11:39:17;;;;;;;;;;;23.50;33.20;;;;;;5029065;28;19956;-74
2023/04/05 11:41:51;;;;;;;;;;;23.50;33.20;;;;;;5007867;28;19924;-74
2023/04/05 11:44:17;;;;;;;;;;;23.60;33.10;;;;;;5014098;28;19913;-73
2023/04/05 11:46:44;;;;;;;;;;;23.70;32.90;;;;;;5007984;28;20283;-73
2023/04/05 11:49:10;;;;;;;;;;;23.70;32.90;;;;;;5008359;28;19917;-73
2023/04/05 11:51:35;;;;;;;;;;;23.50;33.10;;;;;;5004063;28;19920;-73
2023/04/05 11:54:00;;;;;;;;;;;23.50;33.20;;;;;;5016395;28;20016;-72
2023/04/05 11:56:26;;;;;;;;;;;23.50;33.30;;;;;;5010959;28;20409;-72
2023/04/05 11:58:51;;;;;;;;;;;23.50;33.10;;;;;;5000479;28;20394;-73
2023/04/05 12:01:17;;;;;;;;;;;23.60;32.90;;;;;;4994516;28;19918;-74
2023/04/05 12:03:42;;;;;;;;;;;23.80;32.70;;;;;;5022511;28;19952;-72
2023/04/05 12:06:08;;;;;;;;;;;23.80;32.50;;;;;;5012106;28;19921;-73
2023/04/05 12:08:40;;;;;;;;;;;23.80;32.50;;;;;;5009560;28;19917;-73
2023/04/05 12:11:10;;;;;;;;;;;23.70;32.70;;;;;;5001612;28;19931;-72
2023/04/05 12:13:35;;;;;;;;;;;23.50;32.90;;;;;;5015558;28;20287;-73
2023/04/05 12:16:02;;;;;;;;;;;23.40;33.20;;;;;;5018820;28;19913;-72
2023/04/05 12:18:29;;;;;;;;;;;23.50;33.30;;;;;;5017372;28;20009;-72
2023/04/05 12:20:54;;;;;;;;;;;23.60;33.30;;;;;;5011851;28;19944;-73
2023/04/05 12:23:20;;;;;;;;;;;23.70;33.20;;;;;;5026163;28;19913;-72
2023/04/05 12:25:49;;;;;;;;;;;23.80;33.30;;;;;;5022959;28;19930;-72
2023/04/05 12:28:14;;;;;;;;;;;23.90;33.30;;;;;;5015755;28;21027;-73
2023/04/05 12:30:49;;;;;;;;;;;23.90;33.40;;;;;;4999915;28;19932;-72
2023/04/05 12:33:14;;;;;;;;;;;23.80;33.50;;;;;;5023244;28;19925;-72
2023/04/05 12:35:40;;;;;;;;;;;23.70;33.80;;;;;;5022096;28;20393;-73
2023/04/05 12:38:06;;;;;;;;;;;23.50;34.10;;;;;;5016244;28;20413;-72
2023/04/05 12:40:35;;;;;;;;;;;23.40;34.30;;;;;;5013706;28;19920;-72
2023/04/05 12:43:05;;;;;;;;;;;23.40;34.30;;;;;;5027276;28;19913;-72
2023/04/05 12:45:38;;;;;;;;;;;23.50;34.20;;;;;;5004374;28;19913;-71
2023/04/05 12:48:06;;;;;;;;;;;23.70;33.90;;;;;;5021616;28;19917;-73
2023/04/05 12:50:31;;;;;;;;;;;23.80;33.60;;;;;;5022585;28;20008;-73
2023/04/05 12:52:58;;;;;;;;;;;24.00;33.50;;;;;;5013663;28;19976;-72
2023/04/05 12:55:24;;;;;;;;;;;24.10;33.30;;;;;;5012905;28;19913;-72
2023/04/05 12:57:53;;;;;;;;;;;24.20;33.20;;;;;;5014952;28;20426;-72
2023/04/05 13:00:23;;;;;;;;;;;24.10;33.30;;;;;;5088371;27;19914;-72
2023/04/05 13:02:52;;;;;;;;;;;24.20;33.30;;;;;;5007385;28;19917;-72
2023/04/05 13:05:27;;;;;;;;;;;24.10;33.40;;;;;;5007652;28;19937;-72
2023/04/05 13:07:53;;;;;;;;;;;24.00;33.60;;;;;;5016244;28;19948;-72
2023/04/05 13:10:19;;;;;;;;;;;23.80;33.90;;;;;;5016465;28;19949;-73
2023/04/05 13:12:44;;;;;;;;;;;23.60;34.50;;;;;;5020926;28;19936;-72
2023/04/05 13:15:10;;;;;;;;;;;23.50;34.60;;;;;;5023595;28;19956;-72
2023/04/05 13:17:35;;;;;;;;;;;23.50;34.60;;;;;;5001874;28;19914;-72
2023/04/05 13:20:01;;;;;;;;;;;23.60;34.50;;;;;;5006077;28;19918;-72
2023/04/05 13:22:26;;;;;;;;;;;23.70;34.40;;;;;;4991551;28;19922;-72
2023/04/05 13:24:52;;;;;;;;;;;23.80;34.50;;;;;;5020835;28;19928;-72
2023/04/05 13:27:18;;;;;;;;;;;23.80;34.50;;;;;;5021103;28;19921;-73
2023/04/05 13:29:44;;;;;;;;;;;23.80;34.20;;;;;;5014043;28;20012;-73
2023/04/05 13:32:09;;;;;;;;;;;23.80;34.10;;;;;;5015940;27;20036;-73
2023/04/05 13:34:35;;;;;;;;;;;23.90;34.20;;;;;;5007547;28;19913;-73
2023/04/05 13:37:00;;;;;;;;;;;24.00;33.90;;;;;;5020482;28;19977;-73
2023/04/05 13:39:26;;;;;;;;;;;24.10;34.00;;;;;;5004437;28;20042;-73
2023/04/05 13:41:51;;;;;;;;;;;24.10;33.90;;;;;;5023682;28;19917;-72
2023/04/05 13:44:16;;;;;;;;;;;24.10;34.00;;;;;;5022373;28;19924;-72
2023/04/05 13:46:42;;;;;;;;;;;24.20;34.00;;;;;;5003328;28;20363;-72
2023/04/05 13:49:07;;;;;;;;;;;24.20;33.90;;;;;;5020040;28;19953;-72
2023/04/05 13:51:34;;;;;;;;;;;24.10;34.00;;;;;;5022475;28;19924;-73
2023/04/05 13:53:59;;;;;;;;;;;24.10;34.20;;;;;;5018125;28;19913;-73
2023/04/05 13:56:25;;;;;;;;;;;24.00;34.40;;;;;;5009724;28;19916;-72
2023/04/05 13:58:50;;;;;;;;;;;23.80;34.60;;;;;;4999651;28;19924;-72
2023/04/05 14:01:16;;;;;;;;;;;23.80;34.90;;;;;;5006191;28;20424;-71
2023/04/05 14:03:41;;;;;;;;;;;23.70;34.90;;;;;;5018210;27;20000;-72
2023/04/05 14:06:07;;;;;;;;;;;23.80;34.70;;;;;;5014908;28;19916;-71
2023/04/05 14:08:32;;;;;;;;;;;23.80;34.60;;;;;;5018790;28;19917;-72
2023/04/05 14:10:58;;;;;;;;;;;23.90;34.50;;;;;;5014611;28;19918;-72
2023/04/05 14:13:23;;;;;;;;;;;24.10;34.10;;;;;;4994583;28;19935;-72
2023/04/05 14:15:49;;;;;;;;;;;24.30;33.90;;;;;;5022267;28;20303;-73